createdAt,value
2022-12-04T00:00:44.014Z,100431.28
2022-12-04T00:03:13.615Z,100433.59
2022-12-04T00:05:43.171Z,100432.56
2022-12-04T00:08:12.684Z,100423.84
2022-12-04T00:10:45.001Z,100421.75
2022-12-04T00:13:14.468Z,100420.00
2022-12-04T00:15:47.053Z,100425.78
2022-12-04T00:18:16.573Z,100429.56
2022-12-04T00:20:46.081Z,100427.25
2022-12-04T00:23:15.561Z,100432.03
2022-12-04T00:25:48.563Z,100436.44
2022-12-04T00:28:19.404Z,100436.75
2022-12-04T00:30:51.672Z,100435.69
2022-12-04T00:33:21.187Z,100438.44
2022-12-04T00:35:50.684Z,100440.72
2022-12-04T00:38:20.378Z,100440.47
2022-12-04T00:40:52.493Z,100429.34
2022-12-04T00:43:22.056Z,100429.81
2022-12-04T00:45:54.203Z,100434.19
2022-12-04T00:48:23.789Z,100433.97
2022-12-04T00:50:54.245Z,100438.91
2022-12-04T00:53:23.941Z,100433.63
2022-12-04T00:55:53.436Z,100437.03
2022-12-04T00:58:22.943Z,100434.66
2022-12-04T01:01:04.421Z,100432.78
2022-12-04T01:03:34.017Z,100423.44
2022-12-04T01:06:03.669Z,100427.50
2022-12-04T01:08:33.262Z,100430.03
2022-12-04T01:11:02.937Z,100429.19
2022-12-04T01:13:32.532Z,100435.91
2022-12-04T01:16:04.742Z,100430.47
2022-12-04T01:18:34.350Z,100429.31
2022-12-04T01:21:03.971Z,100417.97
2022-12-04T01:23:33.546Z,100414.19
2022-12-04T01:26:03.281Z,100415.97
2022-12-04T01:28:32.905Z,100408.75
2022-12-04T01:31:06.409Z,100407.16
2022-12-04T01:33:36.630Z,100414.88
2022-12-04T01:36:07.472Z,100394.44
2022-12-04T01:38:37.320Z,100396.16
2022-12-04T01:41:07.451Z,100393.22
2022-12-04T01:43:37.801Z,100400.06
2022-12-04T01:46:10.322Z,100408.28
2022-12-04T01:48:41.727Z,100408.75
2022-12-04T01:51:13.281Z,100405.16
2022-12-04T01:53:44.210Z,100396.34
2022-12-04T01:56:13.792Z,100406.59
2022-12-04T01:58:44.524Z,100412.09
2022-12-04T02:01:17.077Z,100417.41
2022-12-04T02:03:46.709Z,100416.44
2022-12-04T02:06:16.305Z,100425.31
2022-12-04T02:08:45.950Z,100426.53
2022-12-04T02:11:21.539Z,100427.41
2022-12-04T02:13:55.327Z,100430.22
2022-12-04T02:16:28.565Z,100439.84
2022-12-04T02:19:01.885Z,100437.44
2022-12-04T02:21:33.087Z,100430.50
2022-12-04T02:24:22.639Z,100439.44
2022-12-04T02:26:53.049Z,100431.06
2022-12-04T02:29:30.936Z,100429.50
2022-12-04T02:32:01.810Z,100423.19
2022-12-04T02:34:32.198Z,100430.41
2022-12-04T02:37:03.377Z,100426.97
2022-12-04T02:39:35.739Z,100414.50
2022-12-04T02:42:07.290Z,100419.06
2022-12-04T02:44:41.308Z,100405.09
2022-12-04T02:47:13.891Z,100410.53
2022-12-04T02:49:46.388Z,100423.53
2022-12-04T02:52:17.010Z,100415.25
2022-12-04T02:54:48.844Z,100417.94
2022-12-04T02:57:21.856Z,100411.81
2022-12-04T02:59:54.556Z,100414.50
2022-12-04T03:02:27.560Z,100403.75
2022-12-04T03:04:57.819Z,100409.13
2022-12-04T03:07:29.670Z,100402.78
2022-12-04T03:10:00.867Z,100401.22
2022-12-04T03:12:32.342Z,100405.22
2022-12-04T03:15:05.540Z,100393.59
2022-12-04T03:17:37.815Z,100400.97
2022-12-04T03:20:09.781Z,100406.19
2022-12-04T03:22:39.899Z,100411.81
2022-12-04T03:25:10.863Z,100402.84
2022-12-04T03:27:43.407Z,100401.47
2022-12-04T03:30:17.235Z,100400.66
2022-12-04T03:32:48.542Z,100389.38
2022-12-04T03:35:19.757Z,100389.63
2022-12-04T03:37:51.631Z,100389.63
2022-12-04T03:40:24.038Z,100386.88
2022-12-04T03:42:55.888Z,100388.00
2022-12-04T03:45:29.191Z,100390.47
2022-12-04T03:48:01.686Z,100390.22
2022-12-04T03:50:35.426Z,100389.34
2022-12-04T03:53:08.479Z,100378.94
2022-12-04T03:55:39.274Z,100395.19
2022-12-04T03:58:10.747Z,100391.59
2022-12-04T04:00:44.248Z,100388.53
2022-12-04T04:03:16.116Z,100390.91
2022-12-04T04:05:48.021Z,100387.03
2022-12-04T04:08:30.914Z,100393.28
2022-12-04T04:11:03.453Z,100390.59
2022-12-04T04:13:48.786Z,100399.94
2022-12-04T04:16:33.899Z,100396.88
2022-12-04T04:19:15.959Z,100404.72
2022-12-04T04:21:58.024Z,100408.16
2022-12-04T04:24:33.206Z,100399.81
2022-12-04T04:27:02.815Z,100385.09
2022-12-04T04:29:32.364Z,100385.38
2022-12-04T04:32:06.481Z,100389.97
2022-12-04T04:34:38.189Z,100382.72
2022-12-04T04:37:09.547Z,100395.59
2022-12-04T04:39:41.092Z,100394.56
2022-12-04T04:42:14.570Z,100391.34
2022-12-04T04:44:47.279Z,100388.91
2022-12-04T04:47:21.477Z,100381.28
2022-12-04T04:49:51.537Z,100388.59
2022-12-04T04:52:21.155Z,100384.41
2022-12-04T04:54:50.812Z,100382.19
2022-12-04T04:57:29.329Z,100386.72
2022-12-04T04:59:58.896Z,100385.16
2022-12-04T05:02:31.469Z,100380.03
2022-12-04T05:05:01.142Z,100373.22
2022-12-04T05:07:30.768Z,100371.50
2022-12-04T05:10:00.399Z,100378.91
2022-12-04T05:12:29.964Z,100377.78
2022-12-04T05:14:59.530Z,100375.47
2022-12-04T05:17:31.763Z,100378.22
2022-12-04T05:20:01.416Z,100382.69
2022-12-04T05:22:32.484Z,100379.50
2022-12-04T05:25:01.749Z,100377.91
2022-12-04T05:27:31.665Z,100382.53
2022-12-04T05:30:01.303Z,100393.97
2022-12-04T05:32:33.485Z,100394.44
2022-12-04T05:35:07.679Z,100390.91
2022-12-04T05:37:40.620Z,100388.28
2022-12-04T05:40:11.497Z,100383.97
2022-12-04T05:42:41.195Z,100395.91
2022-12-04T05:45:11.344Z,100397.34
2022-12-04T05:47:43.943Z,100395.09
2022-12-04T05:50:14.443Z,100386.50
2022-12-04T05:52:44.138Z,100410.72
2022-12-04T05:55:13.613Z,100405.16
2022-12-04T05:57:43.161Z,100411.28
2022-12-04T06:00:14.136Z,100415.38
2022-12-04T06:02:46.398Z,100414.13
2022-12-04T06:05:16.450Z,100411.50
2022-12-04T06:07:46.020Z,100401.50
2022-12-04T06:10:15.560Z,100406.41
2022-12-04T06:12:45.061Z,100410.16
2022-12-04T06:15:14.661Z,100405.59
2022-12-04T06:17:46.859Z,100412.09
2022-12-04T06:20:17.044Z,100405.78
2022-12-04T06:22:46.814Z,100405.09
2022-12-04T06:25:16.452Z,100411.50
2022-12-04T06:27:46.174Z,100406.59
2022-12-04T06:30:16.244Z,100410.69
2022-12-04T06:32:48.471Z,100412.84
2022-12-04T06:35:18.316Z,100410.53
2022-12-04T06:37:47.942Z,100413.25
2022-12-04T06:40:17.619Z,100415.34
2022-12-04T06:42:47.230Z,100422.09
2022-12-04T06:45:16.907Z,100418.69
2022-12-04T06:47:49.357Z,100410.75
2022-12-04T06:50:19.174Z,100404.88
2022-12-04T06:52:48.860Z,100406.38
2022-12-04T06:55:18.632Z,100406.88
2022-12-04T06:57:48.287Z,100405.66
2022-12-04T07:00:19.108Z,100406.34
2022-12-04T07:02:51.357Z,100401.97
2022-12-04T07:05:21.018Z,100398.53
2022-12-04T07:07:50.712Z,100400.16
2022-12-04T07:10:20.507Z,100387.59
2022-12-04T07:12:50.221Z,100379.44
2022-12-04T07:15:20.066Z,100384.19
2022-12-04T07:17:52.294Z,100381.94
2022-12-04T07:20:22.117Z,100396.34
2022-12-04T07:22:51.743Z,100393.22
2022-12-04T07:25:21.517Z,100387.84
2022-12-04T07:27:51.127Z,100388.13
2022-12-04T07:30:20.941Z,100388.66
2022-12-04T07:32:53.151Z,100379.78
2022-12-04T07:35:22.787Z,100378.34
2022-12-04T07:37:52.396Z,100377.38
2022-12-04T07:40:22.251Z,100378.34
2022-12-04T07:42:51.886Z,100376.69
2022-12-04T07:45:21.558Z,100381.56
2022-12-04T07:47:53.807Z,100386.66
2022-12-04T07:50:23.414Z,100384.78
2022-12-04T07:52:53.268Z,100384.97
2022-12-04T07:55:23.457Z,100390.16
2022-12-04T07:57:53.276Z,100387.94
2022-12-04T08:00:23.401Z,100382.91
2022-12-04T08:02:55.745Z,100387.16
2022-12-04T08:05:25.372Z,100397.81
2022-12-04T08:07:55.148Z,100387.94
2022-12-04T08:10:24.824Z,100393.94
2022-12-04T08:12:54.578Z,100403.28
2022-12-04T08:15:24.291Z,100403.69
2022-12-04T08:17:56.474Z,100399.75
2022-12-04T08:20:26.143Z,100400.16
2022-12-04T08:22:55.795Z,100410.03
2022-12-04T08:25:25.540Z,100415.38
2022-12-04T08:27:55.143Z,100412.84
2022-12-04T08:30:24.776Z,100409.19
2022-12-04T08:32:57.087Z,100404.31
2022-12-04T08:35:26.739Z,100397.44
2022-12-04T08:37:56.487Z,100399.63
2022-12-04T08:40:26.180Z,100401.41
2022-12-04T08:42:55.783Z,100393.00
2022-12-04T08:45:25.381Z,100395.34
2022-12-04T08:47:57.625Z,100385.88
2022-12-04T08:50:27.408Z,100385.78
2022-12-04T08:52:57.115Z,100394.28
2022-12-04T08:55:26.758Z,100399.75
2022-12-04T08:57:56.430Z,100390.63
2022-12-04T09:00:27.355Z,100383.84
2022-12-04T09:02:59.604Z,100380.34
2022-12-04T09:05:29.392Z,100377.53
2022-12-04T09:07:59.091Z,100380.84
2022-12-04T09:10:28.814Z,100380.91
2022-12-04T09:12:58.421Z,100383.38
2022-12-04T09:15:28.149Z,100387.22
2022-12-04T09:18:00.379Z,100386.13
2022-12-04T09:20:30.068Z,100383.91
2022-12-04T09:23:04.285Z,100388.16
2022-12-04T09:25:34.536Z,100383.41
2022-12-04T09:28:04.185Z,100388.09
2022-12-04T09:30:33.889Z,100391.41
2022-12-04T09:33:06.232Z,100390.38
2022-12-04T09:35:35.900Z,100391.59
2022-12-04T09:38:05.557Z,100383.88
2022-12-04T09:40:38.438Z,100379.06
2022-12-04T09:43:09.982Z,100381.00
2022-12-04T09:45:43.981Z,100383.47
2022-12-04T09:48:16.277Z,100373.53
2022-12-04T09:50:46.440Z,100373.31
2022-12-04T09:53:17.798Z,100376.75
2022-12-04T09:55:49.056Z,100380.50
2022-12-04T09:58:20.989Z,100373.22
2022-12-04T10:00:52.149Z,100377.28
2022-12-04T10:03:25.151Z,100370.81
2022-12-04T10:05:57.710Z,100366.00
2022-12-04T10:08:29.438Z,100367.22
2022-12-04T10:11:04.438Z,100358.06
2022-12-04T10:13:53.690Z,100363.53
2022-12-04T10:16:25.532Z,100364.81
2022-12-04T10:19:01.565Z,100364.09
2022-12-04T10:21:42.770Z,100365.81
2022-12-04T10:24:19.744Z,100352.59
2022-12-04T10:26:50.172Z,100360.25
2022-12-04T10:29:23.146Z,100366.00
2022-12-04T10:31:52.935Z,100370.25
2022-12-04T10:34:26.683Z,100368.78
2022-12-04T10:36:57.209Z,100371.84
2022-12-04T10:39:28.509Z,100369.53
2022-12-04T10:42:01.316Z,100364.97
2022-12-04T10:44:31.060Z,100354.84
2022-12-04T10:47:02.393Z,100341.44
2022-12-04T10:49:35.367Z,100346.13
2022-12-04T10:52:05.261Z,100341.75
2022-12-04T10:54:35.783Z,100345.22
2022-12-04T10:57:06.543Z,100343.94
2022-12-04T10:59:36.232Z,100335.91
2022-12-04T11:02:07.570Z,100335.22
2022-12-04T11:04:39.872Z,100337.53
2022-12-04T11:07:11.790Z,100323.75
2022-12-04T11:09:41.411Z,100322.78
2022-12-04T11:12:12.088Z,100319.84
2022-12-04T11:14:46.669Z,100307.56
2022-12-04T11:17:19.359Z,100302.78
2022-12-04T11:20:02.012Z,100294.59
2022-12-04T11:22:31.808Z,100300.97
2022-12-04T11:25:01.722Z,100288.88
2022-12-04T11:27:33.464Z,100290.16
2022-12-04T11:30:04.166Z,100299.38
2022-12-04T11:32:34.855Z,100302.50
2022-12-04T11:35:08.948Z,100291.31
2022-12-04T11:37:44.957Z,100302.47
2022-12-04T11:40:19.710Z,100305.09
2022-12-04T11:43:03.923Z,100302.31
2022-12-04T11:45:33.732Z,100316.56
2022-12-04T11:48:05.508Z,100317.22
2022-12-04T11:50:42.296Z,100303.63
2022-12-04T11:53:18.129Z,100294.13
2022-12-04T11:56:01.656Z,100294.63
2022-12-04T11:58:40.230Z,100298.38
2022-12-04T12:01:16.756Z,100286.25
2022-12-04T12:03:48.726Z,100278.38
2022-12-04T12:06:33.385Z,100285.13
2022-12-04T12:09:11.812Z,100287.75
2022-12-04T12:11:43.908Z,100287.22
2022-12-04T12:14:17.153Z,100289.31
2022-12-04T12:16:55.372Z,100290.72
2022-12-04T12:19:49.348Z,100297.13
2022-12-04T12:22:27.029Z,100288.94
2022-12-04T12:25:00.694Z,100300.06
2022-12-04T12:27:40.558Z,100291.88
2022-12-04T12:30:14.514Z,100304.84
2022-12-04T12:33:01.975Z,100302.38
2022-12-04T12:35:33.661Z,100290.56
2022-12-04T12:38:07.748Z,100285.00
2022-12-04T12:40:39.232Z,100279.59
2022-12-04T12:43:10.213Z,100289.63
2022-12-04T12:46:22.329Z,100285.38
2022-12-04T12:49:18.547Z,100283.22
2022-12-04T12:51:51.998Z,100286.00
2022-12-04T12:54:31.254Z,100288.78
2022-12-04T13:00:27.491Z,100289.13
2022-12-04T13:03:00.885Z,100288.63
2022-12-04T13:05:32.528Z,100277.50
2022-12-04T13:08:06.158Z,100287.47
2022-12-04T13:10:40.465Z,100278.91
2022-12-04T13:13:12.800Z,100277.81
2022-12-04T13:15:44.773Z,100277.66
2022-12-04T13:18:18.066Z,100271.91
2022-12-04T13:20:51.205Z,100267.00
2022-12-04T13:23:26.397Z,100264.22
2022-12-04T13:26:01.118Z,100269.63
2022-12-04T13:28:38.065Z,100270.94
2022-12-04T13:31:13.277Z,100276.38
2022-12-04T13:34:02.837Z,100280.59
2022-12-04T13:36:38.468Z,100267.38
2022-12-04T13:39:46.342Z,100275.03
2022-12-04T13:42:24.547Z,100263.38
2022-12-04T13:44:58.278Z,100264.50
2022-12-04T13:47:29.494Z,100255.34
2022-12-04T13:50:10.039Z,100250.13
2022-12-04T13:52:41.146Z,100244.03
2022-12-04T13:55:25.025Z,100239.25
2022-12-04T13:58:05.556Z,100237.78
2022-12-04T14:01:02.722Z,100219.47
2022-12-04T14:03:40.422Z,100220.28
2022-12-04T14:06:31.807Z,100217.84
2022-12-04T14:09:02.280Z,100212.88
2022-12-04T14:11:32.021Z,100215.41
2022-12-04T14:14:47.158Z,100217.38
2022-12-04T14:17:34.115Z,100219.53
2022-12-04T14:20:08.089Z,100211.38
2022-12-04T14:22:45.573Z,100224.50
2022-12-04T14:25:36.393Z,100223.53
2022-12-04T14:28:16.639Z,100228.63
2022-12-04T14:30:46.381Z,100230.75
2022-12-04T14:33:22.147Z,100228.91
2022-12-04T14:35:57.076Z,100233.00
2022-12-04T14:38:26.764Z,100234.16
2022-12-04T14:40:58.236Z,100234.50
2022-12-04T14:43:29.166Z,100231.38
2022-12-04T14:46:25.933Z,100231.38
2022-12-04T14:52:28.353Z,100238.13
2022-12-04T14:55:06.072Z,100239.75
2022-12-04T14:57:56.231Z,100244.16
2022-12-04T15:00:34.865Z,100238.09
2022-12-04T15:07:00.424Z,100242.34
2022-12-04T15:43:47.821Z,100269.72
2022-12-04T16:00:31.360Z,100259.84
2022-12-04T16:03:01.450Z,100258.41
2022-12-04T16:05:38.945Z,100260.06
2022-12-04T16:08:25.545Z,100252.69
2022-12-04T16:11:02.442Z,100259.25
2022-12-04T16:13:37.240Z,100258.59
2022-12-04T16:16:18.415Z,100268.91
2022-12-04T16:18:49.998Z,100272.03
2022-12-04T16:21:21.635Z,100268.25
2022-12-04T16:23:51.763Z,100270.53
2022-12-04T16:26:23.101Z,100275.78
2022-12-04T16:28:52.839Z,100268.56
2022-12-04T16:31:25.579Z,100280.06
2022-12-04T16:33:58.067Z,100283.00
2022-12-04T16:40:13.769Z,100284.78
2022-12-04T16:42:43.023Z,100288.72
2022-12-04T16:45:23.315Z,100296.25
2022-12-04T16:47:55.497Z,100298.06
2022-12-04T16:50:24.965Z,100290.53
2022-12-04T16:52:54.575Z,100287.56
2022-12-04T16:55:25.747Z,100286.25
2022-12-04T16:57:55.205Z,100288.88
2022-12-04T17:00:24.771Z,100278.09
2022-12-04T17:02:56.904Z,100286.09
2022-12-04T17:05:28.399Z,100282.97
2022-12-04T17:07:58.082Z,100290.81
2022-12-04T17:10:27.732Z,100291.47
2022-12-04T17:12:57.430Z,100289.66
2022-12-04T17:15:26.938Z,100279.53
2022-12-04T17:17:59.024Z,100278.91
2022-12-04T17:20:28.750Z,100284.13
2022-12-04T17:22:58.252Z,100275.13
2022-12-04T17:25:27.767Z,100269.72
2022-12-04T17:27:57.223Z,100282.63
2022-12-04T17:30:30.194Z,100275.75
2022-12-04T17:33:04.896Z,100273.56
2022-12-04T17:35:34.493Z,100266.69
2022-12-04T17:38:06.252Z,100264.72
2022-12-04T17:40:36.053Z,100266.69
2022-12-04T17:43:05.563Z,100261.25
2022-12-04T17:45:35.051Z,100265.03
2022-12-04T17:48:07.668Z,100261.41
2022-12-04T17:50:37.202Z,100264.81
2022-12-04T17:53:06.710Z,100262.66
2022-12-04T17:55:36.901Z,100251.38
2022-12-04T17:58:06.423Z,100258.91
2022-12-04T18:00:36.029Z,100262.50
2022-12-04T18:03:08.188Z,100256.97
2022-12-04T18:05:37.735Z,100249.28
2022-12-04T18:08:07.382Z,100251.34
2022-12-04T18:10:38.324Z,100245.91
2022-12-04T18:13:07.801Z,100242.66
2022-12-04T18:15:37.471Z,100241.56
2022-12-04T18:18:09.552Z,100239.53
2022-12-04T18:20:39.083Z,100234.97
2022-12-04T18:23:09.059Z,100240.19
2022-12-04T18:25:38.559Z,100234.16
2022-12-04T18:28:08.128Z,100231.25
2022-12-04T18:30:39.743Z,100229.44
2022-12-04T18:33:14.853Z,100223.22
2022-12-04T18:35:56.072Z,100224.03
2022-12-04T18:38:25.859Z,100216.00
2022-12-04T18:40:55.361Z,100206.19
2022-12-04T18:43:24.915Z,100213.81
2022-12-04T18:46:04.168Z,100212.50
2022-12-04T18:48:39.542Z,100217.44
2022-12-04T18:51:17.386Z,100230.06
2022-12-04T18:53:46.947Z,100247.41
2022-12-04T18:56:17.413Z,100244.69
2022-12-04T18:58:47.054Z,100243.66
2022-12-04T19:01:18.457Z,100248.88
2022-12-04T19:03:50.657Z,100250.06
2022-12-04T19:06:20.288Z,100257.56
2022-12-04T19:08:50.043Z,100259.88
2022-12-04T19:11:19.535Z,100270.94
2022-12-04T19:13:49.020Z,100266.53
2022-12-04T19:16:19.216Z,100264.13
2022-12-04T19:18:51.433Z,100279.19
2022-12-04T19:21:21.041Z,100277.53
2022-12-04T19:23:53.164Z,100277.72
2022-12-04T19:26:23.097Z,100281.78
2022-12-04T19:28:53.759Z,100286.88
2022-12-04T19:31:24.479Z,100284.28
2022-12-04T19:33:56.763Z,100285.13
2022-12-04T19:36:26.681Z,100285.78
2022-12-04T19:38:56.242Z,100286.28
2022-12-04T19:41:27.030Z,100299.22
2022-12-04T19:43:58.375Z,100295.31
2022-12-04T19:46:29.251Z,100294.16
2022-12-04T19:49:03.862Z,100295.81
2022-12-04T19:51:34.727Z,100290.72
2022-12-04T19:54:04.495Z,100286.16
2022-12-04T19:56:35.192Z,100287.47
2022-12-04T19:59:06.047Z,100283.72
2022-12-04T20:01:35.973Z,100293.91
2022-12-04T20:04:10.842Z,100294.91
2022-12-04T20:06:41.395Z,100292.94
2022-12-04T20:09:12.139Z,100296.56
2022-12-04T20:11:41.729Z,100298.34
2022-12-04T20:14:11.354Z,100295.56
2022-12-04T20:16:41.393Z,100298.03
2022-12-04T20:19:16.804Z,100301.47
2022-12-04T20:21:46.448Z,100310.78
2022-12-04T20:24:16.876Z,100311.78
2022-12-04T20:26:47.866Z,100309.81
2022-12-04T20:29:19.161Z,100315.56
2022-12-04T20:31:48.898Z,100307.88
2022-12-04T20:34:21.618Z,100303.13
2022-12-04T20:36:51.274Z,100301.16
2022-12-04T20:39:21.892Z,100303.59
2022-12-04T20:41:54.355Z,100292.28
2022-12-04T20:44:23.861Z,100293.78
2022-12-04T20:46:53.512Z,100310.94
2022-12-04T20:49:25.636Z,100313.75
2022-12-04T20:51:55.116Z,100320.00
2022-12-04T20:54:25.672Z,100327.03
2022-12-04T20:56:56.417Z,100319.22
2022-12-04T20:59:26.405Z,100330.97
2022-12-04T21:01:55.958Z,100327.94
2022-12-04T21:04:28.124Z,100329.72
2022-12-04T21:06:57.716Z,100340.72
2022-12-04T21:09:28.907Z,100342.44
2022-12-04T21:11:58.685Z,100341.94
2022-12-04T21:14:41.630Z,100343.88
2022-12-04T21:17:16.551Z,100340.03
2022-12-04T21:19:49.044Z,100342.25
2022-12-04T21:22:19.026Z,100342.00
2022-12-04T21:24:48.504Z,100349.56
2022-12-04T21:27:21.242Z,100347.78
2022-12-04T21:29:51.099Z,100350.75
2022-12-04T21:32:21.809Z,100355.16
2022-12-04T21:34:54.274Z,100348.13
2022-12-04T21:37:23.808Z,100347.63
2022-12-04T21:39:53.349Z,100352.88
2022-12-04T21:42:35.481Z,100353.84
2022-12-04T21:45:06.162Z,100355.94
2022-12-04T21:47:35.825Z,100355.94
2022-12-04T21:50:09.352Z,100347.59
2022-12-04T21:52:38.890Z,100351.16
2022-12-04T21:55:09.028Z,100346.38
2022-12-04T21:57:38.680Z,100346.56
2022-12-04T22:00:09.819Z,100352.00
2022-12-04T22:02:40.057Z,100356.41
2022-12-04T22:05:12.291Z,100349.06
2022-12-04T22:07:41.828Z,100354.78
2022-12-04T22:10:12.203Z,100350.66
2022-12-04T22:12:50.689Z,100351.19
2022-12-04T22:15:20.606Z,100349.78
2022-12-04T22:17:50.066Z,100350.88
2022-12-04T22:20:23.547Z,100356.31
2022-12-04T22:22:53.024Z,100355.38
2022-12-04T22:25:22.508Z,100366.19
2022-12-04T22:27:51.998Z,100354.88
2022-12-04T22:30:21.839Z,100362.28
2022-12-04T22:32:51.355Z,100360.56
2022-12-04T22:35:23.463Z,100364.88
2022-12-04T22:37:52.951Z,100365.97
2022-12-04T22:40:22.470Z,100369.84
2022-12-04T22:42:51.938Z,100369.75
2022-12-04T22:45:21.548Z,100368.66
2022-12-04T22:47:51.047Z,100374.06
2022-12-04T22:50:23.263Z,100361.31
2022-12-04T22:52:52.735Z,100358.69
2022-12-04T22:55:22.360Z,100370.19
2022-12-04T22:57:51.873Z,100367.66
2022-12-04T23:00:21.642Z,100364.03
2022-12-04T23:02:51.256Z,100374.88
2022-12-04T23:05:23.452Z,100376.28
2022-12-04T23:07:53.224Z,100378.91
2022-12-04T23:10:22.806Z,100376.44
2022-12-04T23:12:52.272Z,100379.09
2022-12-04T23:15:22.269Z,100372.16
2022-12-04T23:17:51.777Z,100372.53
2022-12-04T23:20:23.873Z,100376.63
2022-12-04T23:22:55.742Z,100376.81
2022-12-04T23:25:25.248Z,100377.50
2022-12-04T23:27:54.792Z,100373.56
2022-12-04T23:30:28.388Z,100379.41
2022-12-04T23:32:59.019Z,100381.00
2022-12-04T23:35:31.101Z,100388.09
2022-12-04T23:38:00.590Z,100388.28
2022-12-04T23:40:30.072Z,100386.75
2022-12-04T23:42:59.572Z,100386.50
2022-12-04T23:45:29.122Z,100385.88
2022-12-04T23:47:58.574Z,100381.03
2022-12-04T23:50:28.089Z,100385.66
2022-12-04T23:53:00.386Z,100381.97
2022-12-04T23:55:34.056Z,100382.84
2022-12-04T23:58:04.616Z,100379.47
